Josephine Anne — WDD9858 — position and weather

sailwx.info

Track history (hours):
 
Tides and Currents Weather Stations Pressure Air Temp Water Temp Dewpoint Dewpoint Depression Visibility Wind Speed Wind Dir Waves Ship Positions

Josephine Anne

Owner: E.N. Bisso & Son, Inc., Metairie, LA. More information available from US FCC via Universal Licensing System and Coast Guard Vessel Documentation Center.

Last reported at 2015-Sep-01 19:30 UTC. Time now 2015-Sep-02 19:05 UTC.
Position N 29°55' W 090°05'.

Length 29 m; draft 4.3 m.

Type: Tug. MMSI: 367317270.

Date/timePositionNaut miles runAvg speedWind from/ knotsBaromVisibWave heightAir tempDewpointWater temp
2015-Sep-01 19:30N 29°55' W 090°05'2 0.5
2015-Sep-01 14:23N 29°56' W 090°08'5 2.8
2015-Sep-01 12:33N 29°57' W 090°03'0 0.0
2015-Aug-31 05:32N 29°58' W 090°02'0 0.0
2015-Aug-31 04:33N 29°58' W 090°02'0 0.0
2015-Aug-31 03:30N 29°58' W 090°02'0 0.0
2015-Aug-31 02:32N 29°58' W 090°02'0 0.0
2015-Aug-31 01:32N 29°58' W 090°02'0 0.0
2015-Aug-31 00:33N 29°58' W 090°02'1 1.0
2015-Aug-30 23:33N 29°57' W 090°01'2 0.2
2015-Aug-30 13:16N 29°57' W 090°04'0 0.0
2015-Aug-30 11:28N 29°57' W 090°04'0 0.0
2015-Aug-30 10:33N 29°57' W 090°04'0 0.0
2015-Aug-30 09:33N 29°57' W 090°04'0 0.0
2015-Aug-30 08:33N 29°57' W 090°04'0 0.0
2015-Aug-30 07:29N 29°57' W 090°04'0 0.0
2015-Aug-30 06:32N 29°57' W 090°04'0 0.0
2015-Aug-30 05:33N 29°57' W 090°04'0 0.0
2015-Aug-30 04:33N 29°57' W 090°04'0 0.0
2015-Aug-30 03:33N 29°57' W 090°04'0 0.0
2015-Aug-30 02:33N 29°57' W 090°04'0 0.0
2015-Aug-30 01:32N 29°57' W 090°04'0 0.0
2015-Aug-30 00:25N 29°57' W 090°04'0 0.0
2015-Aug-29 22:20N 29°57' W 090°04'2 0.1
2015-Aug-29 03:31N 29°57' W 090°01'1 0.9
2015-Aug-29 02:28N 29°58' W 090°02'0 0.0
2015-Aug-29 01:28N 29°58' W 090°02'0 0.0
2015-Aug-29 00:26N 29°58' W 090°02'0 0.4
2015-Aug-28 23:25N 29°58' W 090°03'5 0.8
2015-Aug-28 16:30N 29°55' W 090°08'1 0.1
2015-Aug-28 00:17N 29°56' W 090°08'2 1.0
2015-Aug-27 22:16N 29°55' W 090°07'2 0.4
2015-Aug-27 18:19N 29°55' W 090°06'5 5.8
2015-Aug-27 17:24N 29°57' W 089°60'0 0.4
2015-Aug-27 16:30N 29°57' W 090°00'2 2.1
2015-Aug-27 15:33N 29°58' W 090°02'0 0.0
2015-Aug-27 14:33N 29°58' W 090°02'0 0.0
2015-Aug-27 13:33N 29°58' W 090°02'0 0.0
2015-Aug-27 12:33N 29°58' W 090°02'0 0.0
2015-Aug-27 11:32N 29°58' W 090°02'0 0.0
2015-Aug-27 10:32N 29°58' W 090°02'2 1.6
2015-Aug-27 09:08N 29°57' W 089°60'1 0.9
2015-Aug-27 08:29N 29°57' W 090°01'2 0.1
2015-Aug-26 15:21N 29°58' W 090°02'0 0.0
2015-Aug-26 14:08N 29°58' W 090°02'2 1.2
2015-Aug-26 12:20N 29°57' W 089°60'0 0.1
2015-Aug-26 08:19N 29°56' W 089°60'5 6.7
2015-Aug-26 07:32N 29°55' W 090°05'1 0.9
2015-Aug-26 06:30N 29°54' W 090°06'2 2.0
2015-Aug-26 05:32N 29°56' W 090°08'0 0.0
2015-Aug-26 04:31N 29°56' W 090°08'1 0.8
2015-Aug-26 03:26N 29°56' W 090°08'4 4.1
2015-Aug-26 02:32N 29°55' W 090°04'3 3.5
2015-Aug-26 01:33N 29°57' W 090°01'0 0.0
2015-Aug-26 00:31N 29°57' W 090°01'0 0.0
2015-Aug-25 23:33N 29°57' W 090°01'0 0.0
2015-Aug-25 22:33N 29°57' W 090°01'4 1.4
2015-Aug-25 19:30N 29°55' W 089°57'4 3.1
2015-Aug-25 18:16N 29°57' W 090°01'1 0.7
2015-Aug-25 17:31N 29°57' W 090°01'3 0.2
2015-Aug-25 01:32N 29°55' W 090°04'1 0.1
2015-Aug-24 04:27N 29°55' W 090°05'0 0.4
2015-Aug-24 03:32N 29°55' W 090°05'4 3.7
2015-Aug-24 02:33N 29°58' W 090°02'0 0.0
2015-Aug-24 01:31N 29°58' W 090°02'0 0.0
2015-Aug-24 00:32N 29°58' W 090°02'0 0.0
2015-Aug-23 23:32N 29°58' W 090°02'2 2.0
2015-Aug-23 22:28N 29°57' W 089°60'0 0.5
2015-Aug-23 21:32N 29°56' W 089°60'0 0.0
2015-Aug-23 20:33N 29°56' W 089°60'0 0.0
2015-Aug-23 19:31N 29°56' W 089°60'0 0.0
2015-Aug-23 18:30N 29°56' W 089°60'3 2.5
2015-Aug-23 17:28N 29°58' W 090°02'  
Track history (hours):
 
Tides and Currents Weather Stations Pressure Air Temp Water Temp Dewpoint Dewpoint Depression Visibility Wind Speed Wind Dir Waves Ship Positions

Josephine Anne

Owner: E.N. Bisso & Son, Inc., Metairie, LA. More information available from US FCC via Universal Licensing System and Coast Guard Vessel Documentation Center.

Last reported at 2015-Sep-01 19:30 UTC. Time now 2015-Sep-02 19:05 UTC.
Position N 29°55' W 090°05'.

Length 29 m; draft 4.3 m.

Type: Tug. MMSI: 367317270.

Date/timePositionNaut miles runAvg speedWind from/ knotsBaromVisibWave heightAir tempDewpointWater temp
2015-Sep-01 19:30N 29°55' W 090°05'2 0.5
2015-Sep-01 14:23N 29°56' W 090°08'5 2.8
2015-Sep-01 12:33N 29°57' W 090°03'0 0.0
2015-Aug-31 05:32N 29°58' W 090°02'0 0.0
2015-Aug-31 04:33N 29°58' W 090°02'0 0.0
2015-Aug-31 03:30N 29°58' W 090°02'0 0.0
2015-Aug-31 02:32N 29°58' W 090°02'0 0.0
2015-Aug-31 01:32N 29°58' W 090°02'0 0.0
2015-Aug-31 00:33N 29°58' W 090°02'1 1.0
2015-Aug-30 23:33N 29°57' W 090°01'2 0.2
2015-Aug-30 13:16N 29°57' W 090°04'0 0.0
2015-Aug-30 11:28N 29°57' W 090°04'0 0.0
2015-Aug-30 10:33N 29°57' W 090°04'0 0.0
2015-Aug-30 09:33N 29°57' W 090°04'0 0.0
2015-Aug-30 08:33N 29°57' W 090°04'0 0.0
2015-Aug-30 07:29N 29°57' W 090°04'0 0.0
2015-Aug-30 06:32N 29°57' W 090°04'0 0.0
2015-Aug-30 05:33N 29°57' W 090°04'0 0.0
2015-Aug-30 04:33N 29°57' W 090°04'0 0.0
2015-Aug-30 03:33N 29°57' W 090°04'0 0.0
2015-Aug-30 02:33N 29°57' W 090°04'0 0.0
2015-Aug-30 01:32N 29°57' W 090°04'0 0.0
2015-Aug-30 00:25N 29°57' W 090°04'0 0.0
2015-Aug-29 22:20N 29°57' W 090°04'2 0.1
2015-Aug-29 03:31N 29°57' W 090°01'1 0.9
2015-Aug-29 02:28N 29°58' W 090°02'0 0.0
2015-Aug-29 01:28N 29°58' W 090°02'0 0.0
2015-Aug-29 00:26N 29°58' W 090°02'0 0.4
2015-Aug-28 23:25N 29°58' W 090°03'5 0.8
2015-Aug-28 16:30N 29°55' W 090°08'1 0.1
2015-Aug-28 00:17N 29°56' W 090°08'2 1.0
2015-Aug-27 22:16N 29°55' W 090°07'2 0.4
2015-Aug-27 18:19N 29°55' W 090°06'5 5.8
2015-Aug-27 17:24N 29°57' W 089°60'0 0.4
2015-Aug-27 16:30N 29°57' W 090°00'2 2.1
2015-Aug-27 15:33N 29°58' W 090°02'0 0.0
2015-Aug-27 14:33N 29°58' W 090°02'0 0.0
2015-Aug-27 13:33N 29°58' W 090°02'0 0.0
2015-Aug-27 12:33N 29°58' W 090°02'0 0.0
2015-Aug-27 11:32N 29°58' W 090°02'0 0.0
2015-Aug-27 10:32N 29°58' W 090°02'2 1.6
2015-Aug-27 09:08N 29°57' W 089°60'1 0.9
2015-Aug-27 08:29N 29°57' W 090°01'2 0.1
2015-Aug-26 15:21N 29°58' W 090°02'0 0.0
2015-Aug-26 14:08N 29°58' W 090°02'2 1.2
2015-Aug-26 12:20N 29°57' W 089°60'0 0.1
2015-Aug-26 08:19N 29°56' W 089°60'5 6.7
2015-Aug-26 07:32N 29°55' W 090°05'1 0.9
2015-Aug-26 06:30N 29°54' W 090°06'2 2.0
2015-Aug-26 05:32N 29°56' W 090°08'0 0.0
2015-Aug-26 04:31N 29°56' W 090°08'1 0.8
2015-Aug-26 03:26N 29°56' W 090°08'4 4.1
2015-Aug-26 02:32N 29°55' W 090°04'3 3.5
2015-Aug-26 01:33N 29°57' W 090°01'0 0.0
2015-Aug-26 00:31N 29°57' W 090°01'0 0.0
2015-Aug-25 23:33N 29°57' W 090°01'0 0.0
2015-Aug-25 22:33N 29°57' W 090°01'4 1.4
2015-Aug-25 19:30N 29°55' W 089°57'4 3.1
2015-Aug-25 18:16N 29°57' W 090°01'1 0.7
2015-Aug-25 17:31N 29°57' W 090°01'3 0.2
2015-Aug-25 01:32N 29°55' W 090°04'1 0.1
2015-Aug-24 04:27N 29°55' W 090°05'0 0.4
2015-Aug-24 03:32N 29°55' W 090°05'4 3.7
2015-Aug-24 02:33N 29°58' W 090°02'0 0.0
2015-Aug-24 01:31N 29°58' W 090°02'0 0.0
2015-Aug-24 00:32N 29°58' W 090°02'0 0.0
2015-Aug-23 23:32N 29°58' W 090°02'2 2.0
2015-Aug-23 22:28N 29°57' W 089°60'0 0.5
2015-Aug-23 21:32N 29°56' W 089°60'0 0.0
2015-Aug-23 20:33N 29°56' W 089°60'0 0.0
2015-Aug-23 19:31N 29°56' W 089°60'0 0.0
2015-Aug-23 18:30N 29°56' W 089°60'3 2.5
2015-Aug-23 17:28N 29°58' W 090°02'  

Dump ship's entire track history